Time,TemperatureF,DewpointF,PressureIn,WindDirection,WindDirectionDegrees,WindSpeedMPH,WindSpeedGustMPH,Humidity,HourlyPrecipIn,Conditions,Clouds,dailyrainin,SolarRadiationWatts/m^2,SoftwareType,DateUTC
2013-02-09 00:02:00,35.0,29.0,-100.00,WNW,299,4.0,20.0,78,0.00,,,0.08,0.000000,,2013-02-09 05:02:00,
2013-02-09 00:32:00,33.0,27.0,-100.00,NW,318,4.0,12.0,79,0.00,,,0.08,0.000000,,2013-02-09 05:32:00,
2013-02-09 00:42:00,33.0,27.0,-100.00,NW,318,4.0,12.0,79,0.00,,,0.08,0.000000,,2013-02-09 05:42:00,
2013-02-09 00:52:00,33.0,27.0,-100.00,NW,318,4.0,12.0,79,0.00,,,0.08,0.000000,,2013-02-09 05:52:00,
2013-02-09 01:02:00,33.0,27.0,-100.00,NW,318,4.0,12.0,79,0.00,,,0.08,0.000000,,2013-02-09 06:02:00,
2013-02-09 01:32:00,32.0,27.0,-100.00,SSE,168,1.0,10.0,80,0.00,,,0.08,0.000000,,2013-02-09 06:32:00,
2013-02-09 01:42:00,32.0,27.0,-100.00,SSE,168,1.0,10.0,80,0.00,,,0.08,0.000000,,2013-02-09 06:42:00,
2013-02-09 01:52:00,32.0,27.0,-100.00,SSE,168,1.0,10.0,80,0.00,,,0.08,0.000000,,2013-02-09 06:52:00,
2013-02-09 02:01:00,32.0,27.0,-100.00,SSE,168,1.0,10.0,80,0.00,,,0.08,0.000000,,2013-02-09 07:01:00,
2013-02-09 02:32:00,32.0,26.0,-100.00,NNE,27,6.0,10.0,79,0.00,,,0.08,0.000000,,2013-02-09 07:32:00,
2013-02-09 02:42:00,32.0,26.0,-100.00,NNE,27,6.0,10.0,79,0.00,,,0.08,0.000000,,2013-02-09 07:42:00,
2013-02-09 02:52:00,32.0,26.0,-100.00,NNE,27,6.0,10.0,79,0.00,,,0.08,0.000000,,2013-02-09 07:52:00,
2013-02-09 03:01:00,32.0,26.0,-100.00,NNE,27,6.0,10.0,79,0.00,,,0.08,0.000000,,2013-02-09 08:01:00,
2013-02-09 03:32:00,32.0,26.0,-100.00,NE,37,4.0,13.0,78,0.00,,,0.07,0.000000,,2013-02-09 08:32:00,
2013-02-09 03:42:00,32.0,26.0,-100.00,NE,37,4.0,13.0,78,0.00,,,0.07,0.000000,,2013-02-09 08:42:00,
2013-02-09 03:52:00,32.0,26.0,-100.00,NE,37,4.0,13.0,78,0.00,,,0.07,0.000000,,2013-02-09 08:52:00,
2013-02-09 04:03:00,32.0,26.0,-100.00,NE,37,4.0,13.0,78,0.00,,,0.07,0.000000,,2013-02-09 09:03:00,
2013-02-09 04:32:00,30.0,25.0,-100.00,SE,127,2.0,11.0,83,0.00,,,0.07,0.000000,,2013-02-09 09:32:00,
2013-02-09 04:42:00,30.0,25.0,-100.00,SE,127,2.0,11.0,83,0.00,,,0.07,0.000000,,2013-02-09 09:42:00,
2013-02-09 04:52:00,30.0,25.0,-100.00,SE,127,2.0,11.0,83,0.00,,,0.07,0.000000,,2013-02-09 09:52:00,
2013-02-09 05:01:00,30.0,25.0,-100.00,SE,127,2.0,11.0,83,0.00,,,0.07,0.000000,,2013-02-09 10:01:00,
2013-02-09 05:32:00,28.0,25.0,-100.00,ENE,74,2.0,5.0,90,0.00,,,0.07,0.000000,,2013-02-09 10:32:00,
2013-02-09 05:42:00,28.0,25.0,-100.00,ENE,74,2.0,5.0,90,0.00,,,0.07,0.000000,,2013-02-09 10:42:00,
2013-02-09 05:52:00,28.0,25.0,-100.00,ENE,74,2.0,5.0,90,0.00,,,0.07,0.000000,,2013-02-09 10:52:00,
2013-02-09 06:02:00,28.0,25.0,-100.00,ENE,74,2.0,5.0,90,0.00,,,0.07,0.000000,,2013-02-09 11:02:00,
2013-02-09 06:32:00,26.0,25.0,-100.00,ENE,74,2.0,4.0,95,0.00,,,0.07,0.000000,,2013-02-09 11:32:00,
2013-02-09 06:42:00,26.0,25.0,-100.00,ENE,74,2.0,4.0,95,0.00,,,0.07,0.000000,,2013-02-09 11:42:00,
2013-02-09 06:52:00,26.0,25.0,-100.00,ENE,74,2.0,4.0,95,0.00,,,0.07,0.000000,,2013-02-09 11:52:00,
2013-02-09 07:02:00,26.0,25.0,-100.00,ENE,74,2.0,4.0,95,0.00,,,0.07,0.000000,,2013-02-09 12:02:00,
2013-02-09 07:32:00,25.0,24.0,-100.00,ENE,77,1.0,3.0,96,0.00,,,0.07,0.000000,,2013-02-09 12:32:00,
2013-02-09 07:42:00,25.0,24.0,-100.00,ENE,77,1.0,3.0,96,0.00,,,0.07,0.000000,,2013-02-09 12:42:00,
2013-02-09 07:53:00,25.0,24.0,-100.00,ENE,77,1.0,3.0,96,0.00,,,0.07,0.000000,,2013-02-09 12:53:00,
2013-02-09 08:02:00,25.0,24.0,-100.00,ENE,77,1.0,3.0,96,0.00,,,0.07,0.000000,,2013-02-09 13:02:00,
2013-02-09 08:32:00,25.0,24.0,-100.00,East,90,1.0,3.0,96,0.00,,,0.07,10.000000,,2013-02-09 13:32:00,
2013-02-09 08:42:00,25.0,24.0,-100.00,East,90,1.0,3.0,96,0.00,,,0.07,10.000000,,2013-02-09 13:42:00,
2013-02-09 08:52:00,25.0,24.0,-100.00,East,90,1.0,3.0,96,0.00,,,0.07,10.000000,,2013-02-09 13:52:00,
2013-02-09 09:01:00,25.0,24.0,-100.00,East,90,1.0,3.0,96,0.00,,,0.07,10.000000,,2013-02-09 14:01:00,
2013-02-09 09:32:00,29.0,28.0,-100.00,East,90,1.0,3.0,95,0.00,,,0.04,88.000000,,2013-02-09 14:32:00,
2013-02-09 09:42:00,29.0,28.0,-100.00,East,90,1.0,3.0,95,0.00,,,0.04,88.000000,,2013-02-09 14:42:00,
2013-02-09 09:52:00,29.0,28.0,-100.00,East,90,1.0,3.0,95,0.00,,,0.04,88.000000,,2013-02-09 14:52:00,
2013-02-09 10:02:00,29.0,28.0,-100.00,East,90,1.0,3.0,95,0.00,,,0.04,88.000000,,2013-02-09 15:02:00,
2013-02-09 10:32:00,40.0,34.0,-100.00,SE,129,1.0,2.0,78,0.00,,,0.01,434.000000,,2013-02-09 15:32:00,
2013-02-09 10:42:00,40.0,34.0,-100.00,SE,129,1.0,2.0,78,0.00,,,0.01,434.000000,,2013-02-09 15:42:00,
2013-02-09 10:52:00,40.0,34.0,-100.00,SE,129,1.0,2.0,78,0.00,,,0.01,434.000000,,2013-02-09 15:52:00,
2013-02-09 11:32:00,43.0,28.0,-100.00,NNW,343,2.0,4.0,55,0.00,,,0.01,639.000000,,2013-02-09 16:32:00,
2013-02-09 11:42:00,43.0,28.0,-100.00,NNW,343,2.0,4.0,55,0.00,,,0.01,639.000000,,2013-02-09 16:42:00,
2013-02-09 11:52:00,43.0,28.0,-100.00,NNW,343,2.0,4.0,55,0.00,,,0.01,639.000000,,2013-02-09 16:52:00,
2013-02-09 12:01:00,43.0,28.0,-100.00,NNW,343,2.0,4.0,55,0.00,,,0.01,639.000000,,2013-02-09 17:01:00,
2013-02-09 12:32:00,52.0,25.0,-100.00,NW,306,2.0,4.0,35,0.00,,,0.01,766.000000,,2013-02-09 17:32:00,
2013-02-09 13:02:00,52.0,25.0,-100.00,NW,306,2.0,4.0,35,0.00,,,0.01,766.000000,,2013-02-09 18:02:00,
2013-02-09 13:32:00,58.0,17.0,-100.00,WNW,293,4.0,7.0,20,0.00,,,0.00,823.000000,,2013-02-09 18:32:00,
2013-02-09 14:32:00,62.0,14.0,-100.00,WNW,282,4.0,6.0,15,0.00,,,0.00,809.000000,,2013-02-09 19:32:00,
2013-02-09 15:32:00,65.0,15.0,-100.00,West,275,4.0,6.0,14,0.00,,,0.00,713.000000,,2013-02-09 20:32:00,
2013-02-09 16:32:00,66.0,24.0,-100.00,WNW,294,3.0,6.0,20,-99.99,,,0.00,553.000000,,2013-02-09 21:32:00,
2013-02-09 17:32:00,55.0,25.0,-100.00,WSW,257,4.0,7.0,31,0.00,,,0.00,233.000000,,2013-02-09 22:32:00,
2013-02-09 17:42:00,55.0,25.0,-100.00,WSW,257,4.0,7.0,31,0.00,,,0.00,233.000000,,2013-02-09 22:42:00,
2013-02-09 17:52:00,55.0,25.0,-100.00,WSW,257,4.0,7.0,31,0.00,,,0.00,233.000000,,2013-02-09 22:52:00,
2013-02-09 18:02:00,55.0,25.0,-100.00,WSW,257,4.0,7.0,31,0.00,,,0.00,233.000000,,2013-02-09 23:02:00,
2013-02-09 18:32:00,50.0,28.0,-100.00,WSW,247,3.0,7.0,43,0.00,,,0.00,82.000000,,2013-02-09 23:32:00,
2013-02-09 18:42:00,50.0,28.0,-100.00,WSW,247,3.0,7.0,43,0.00,,,0.00,82.000000,,2013-02-09 23:42:00,
2013-02-09 18:52:00,50.0,28.0,-100.00,WSW,247,3.0,7.0,43,0.00,,,0.00,82.000000,,2013-02-09 23:52:00,
2013-02-09 19:02:00,50.0,28.0,-100.00,WSW,247,3.0,7.0,43,0.00,,,0.00,82.000000,,2013-02-10 00:02:00,
2013-02-09 19:32:00,46.0,28.0,-100.00,ESE,109,0.0,5.0,49,0.00,,,0.00,1.000000,,2013-02-10 00:32:00,
2013-02-09 19:42:00,46.0,28.0,-100.00,ESE,109,0.0,5.0,49,0.00,,,0.00,1.000000,,2013-02-10 00:42:00,
2013-02-09 19:52:00,46.0,28.0,-100.00,ESE,109,0.0,5.0,49,0.00,,,0.00,1.000000,,2013-02-10 00:52:00,
2013-02-09 20:01:00,46.0,28.0,-100.00,ESE,109,0.0,5.0,49,0.00,,,0.00,1.000000,,2013-02-10 01:01:00,
2013-02-09 21:32:00,40.0,33.0,-100.00,East,81,3.0,5.0,75,-99.99,,,0.00,0.000000,,2013-02-10 02:32:00,
2013-02-09 21:42:00,40.0,33.0,-100.00,East,81,3.0,5.0,75,-99.99,,,0.00,0.000000,,2013-02-10 02:42:00,
2013-02-09 21:52:00,40.0,33.0,-100.00,East,81,3.0,5.0,75,-99.99,,,0.00,0.000000,,2013-02-10 02:52:00,
2013-02-09 22:02:00,40.0,33.0,-100.00,East,81,3.0,5.0,75,-99.99,,,0.00,0.000000,,2013-02-10 03:02:00,
2013-02-09 22:32:00,37.0,32.0,-100.00,ENE,64,1.0,4.0,82,0.00,,,0.00,0.000000,,2013-02-10 03:32:00,
2013-02-09 22:42:00,37.0,32.0,-100.00,ENE,64,1.0,4.0,82,0.00,,,0.00,0.000000,,2013-02-10 03:42:00,
2013-02-09 22:52:00,37.0,32.0,-100.00,ENE,64,1.0,4.0,82,0.00,,,0.00,0.000000,,2013-02-10 03:52:00,
2013-02-09 23:02:00,37.0,32.0,-100.00,ENE,64,1.0,4.0,82,0.00,,,0.00,0.000000,,2013-02-10 04:02:00,
2013-02-09 23:32:00,35.0,32.0,-100.00,ENE,75,4.0,5.0,89,0.00,,,0.00,0.000000,,2013-02-10 04:32:00,
2013-02-09 23:42:00,35.0,32.0,-100.00,ENE,75,4.0,5.0,89,0.00,,,0.00,0.000000,,2013-02-10 04:42:00,
2013-02-09 23:52:00,35.0,32.0,-100.00,ENE,75,4.0,5.0,89,0.00,,,0.00,0.000000,,2013-02-10 04:52:00,